sensor_id;sensor_type;location;lat;lon;timestamp;pressure;altitude;pressure_sealevel;temperature;humidity
63096;BME280;49184;55.596;37.770;2022-08-21T00:01:09;100453.97;;;17.05;46.86
63096;BME280;49184;55.596;37.770;2022-08-21T00:03:36;100506.41;;;17.31;46.49
63096;BME280;49184;55.596;37.770;2022-08-21T00:06:02;100509.81;;;17.36;46.62
63096;BME280;49184;55.596;37.770;2022-08-21T00:11:15;100431.94;;;16.79;46.87
63096;BME280;49184;55.596;37.770;2022-08-21T00:13:41;100481.94;;;17.03;46.87
63096;BME280;49184;55.596;37.770;2022-08-21T00:16:07;100456.47;;;16.89;46.84
63096;BME280;49184;55.596;37.770;2022-08-21T00:18:34;100439.09;;;16.80;46.59
63096;BME280;49184;55.596;37.770;2022-08-21T00:21:00;100451.59;;;16.86;46.44
63096;BME280;49184;55.596;37.770;2022-08-21T00:23:29;100441.69;;;16.76;46.24
63096;BME280;49184;55.596;37.770;2022-08-21T00:25:55;100476.25;;;17.00;46.68
63096;BME280;49184;55.596;37.770;2022-08-21T00:28:22;100450.94;;;16.80;46.98
63096;BME280;49184;55.596;37.770;2022-08-21T00:30:48;100471.53;;;16.91;46.58
63096;BME280;49184;55.596;37.770;2022-08-21T00:33:14;100466.06;;;16.83;46.93
63096;BME280;49184;55.596;37.770;2022-08-21T00:35:42;100501.28;;;17.03;46.91
63096;BME280;49184;55.596;37.770;2022-08-21T00:38:09;100495.59;;;17.00;46.93
63096;BME280;49184;55.596;37.770;2022-08-21T00:40:52;100458.41;;;16.80;47.33
63096;BME280;49184;55.596;37.770;2022-08-21T00:43:27;100482.13;;;16.89;46.92
63096;BME280;49184;55.596;37.770;2022-08-21T00:45:54;100491.72;;;16.92;46.85
63096;BME280;49184;55.596;37.770;2022-08-21T00:48:22;100483.44;;;16.83;47.59
63096;BME280;49184;55.596;37.770;2022-08-21T00:51:14;100461.47;;;16.70;47.62
63096;BME280;49184;55.596;37.770;2022-08-21T00:53:40;100463.09;;;16.62;47.21
63096;BME280;49184;55.596;37.770;2022-08-21T00:56:09;100461.31;;;16.57;47.34
63096;BME280;49184;55.596;37.770;2022-08-21T00:58:37;100442.47;;;16.42;47.61
63096;BME280;49184;55.596;37.770;2022-08-21T01:01:06;100482.09;;;16.63;48.69
63096;BME280;49184;55.596;37.770;2022-08-21T01:03:33;100477.06;;;16.48;48.77
63096;BME280;49184;55.596;37.770;2022-08-21T01:05:59;100478.03;;;16.52;48.35
63096;BME280;49184;55.596;37.770;2022-08-21T01:08:26;100492.84;;;16.56;48.53
63096;BME280;49184;55.596;37.770;2022-08-21T01:10:55;100474.81;;;16.50;48.50
63096;BME280;49184;55.596;37.770;2022-08-21T01:13:26;100496.41;;;16.57;48.51
63096;BME280;49184;55.596;37.770;2022-08-21T01:15:55;100506.97;;;16.63;48.17
63096;BME280;49184;55.596;37.770;2022-08-21T01:18:22;100504.34;;;16.58;48.30
63096;BME280;49184;55.596;37.770;2022-08-21T01:21:15;100505.34;;;16.62;48.51
63096;BME280;49184;55.596;37.770;2022-08-21T01:23:45;100461.47;;;16.35;48.40
63096;BME280;49184;55.596;37.770;2022-08-21T01:26:13;100448.63;;;16.21;48.20
63096;BME280;49184;55.596;37.770;2022-08-21T01:28:49;100455.31;;;16.29;48.36
63096;BME280;49184;55.596;37.770;2022-08-21T01:31:23;100484.38;;;16.53;48.28
63096;BME280;49184;55.596;37.770;2022-08-21T01:33:50;100447.66;;;16.17;48.87
63096;BME280;49184;55.596;37.770;2022-08-21T01:36:16;100461.31;;;16.31;48.37
63096;BME280;49184;55.596;37.770;2022-08-21T01:38:42;100447.16;;;16.15;48.38
63096;BME280;49184;55.596;37.770;2022-08-21T01:41:08;100466.16;;;16.26;48.53
63096;BME280;49184;55.596;37.770;2022-08-21T01:43:34;100467.66;;;16.23;48.46
63096;BME280;49184;55.596;37.770;2022-08-21T01:46:02;100425.06;;;15.98;49.07
63096;BME280;49184;55.596;37.770;2022-08-21T01:48:29;100510.81;;;16.45;49.48
63096;BME280;49184;55.596;37.770;2022-08-21T01:51:16;100453.19;;;16.17;48.63
63096;BME280;49184;55.596;37.770;2022-08-21T01:53:42;100500.09;;;16.35;49.57
63096;BME280;49184;55.596;37.770;2022-08-21T01:56:10;100453.50;;;16.07;49.30
63096;BME280;49184;55.596;37.770;2022-08-21T01:58:37;100502.69;;;16.31;49.90
63096;BME280;49184;55.596;37.770;2022-08-21T02:03:55;100482.38;;;16.10;49.38
63096;BME280;49184;55.596;37.770;2022-08-21T02:06:21;100425.06;;;15.81;49.80
63096;BME280;49184;55.596;37.770;2022-08-21T02:08:47;100455.06;;;15.91;49.54
63096;BME280;49184;55.596;37.770;2022-08-21T02:11:14;100468.88;;;15.91;49.48
63096;BME280;49184;55.596;37.770;2022-08-21T02:13:40;100460.94;;;15.89;49.58
63096;BME280;49184;55.596;37.770;2022-08-21T02:16:06;100502.84;;;16.17;50.20
63096;BME280;49184;55.596;37.770;2022-08-21T02:18:34;100511.94;;;16.18;49.77
63096;BME280;49184;55.596;37.770;2022-08-21T02:23:26;100506.88;;;16.11;49.93
63096;BME280;49184;55.596;37.770;2022-08-21T02:25:54;100491.44;;;15.93;50.13
63096;BME280;49184;55.596;37.770;2022-08-21T02:28:20;100525.88;;;16.13;50.13
63096;BME280;49184;55.596;37.770;2022-08-21T02:30:47;100497.44;;;15.95;49.94
63096;BME280;49184;55.596;37.770;2022-08-21T02:33:15;100500.84;;;16.01;50.29
63096;BME280;49184;55.596;37.770;2022-08-21T02:35:42;100469.81;;;15.78;50.05
63096;BME280;49184;55.596;37.770;2022-08-21T02:38:12;100469.16;;;15.81;50.13
63096;BME280;49184;55.596;37.770;2022-08-21T02:40:40;100492.53;;;15.92;50.13
63096;BME280;49184;55.596;37.770;2022-08-21T02:43:07;100480.88;;;15.86;50.12
63096;BME280;49184;55.596;37.770;2022-08-21T02:45:34;100430.13;;;15.56;50.82
63096;BME280;49184;55.596;37.770;2022-08-21T02:48:04;100514.81;;;16.04;50.43
63096;BME280;49184;55.596;37.770;2022-08-21T02:50:33;100479.41;;;15.89;50.55
63096;BME280;49184;55.596;37.770;2022-08-21T02:53:00;100468.50;;;15.75;50.53
63096;BME280;49184;55.596;37.770;2022-08-21T02:55:29;100451.59;;;15.68;50.52
63096;BME280;49184;55.596;37.770;2022-08-21T02:57:56;100466.53;;;15.76;50.95
63096;BME280;49184;55.596;37.770;2022-08-21T03:00:25;100446.19;;;15.63;50.81
63096;BME280;49184;55.596;37.770;2022-08-21T03:02:51;100501.66;;;16.01;50.98
63096;BME280;49184;55.596;37.770;2022-08-21T03:05:19;100487.66;;;15.89;50.56
63096;BME280;49184;55.596;37.770;2022-08-21T03:07:47;100501.66;;;16.01;50.96
63096;BME280;49184;55.596;37.770;2022-08-21T03:10:15;100469.66;;;15.83;50.78
63096;BME280;49184;55.596;37.770;2022-08-21T03:12:41;100449.69;;;15.77;50.39
63096;BME280;49184;55.596;37.770;2022-08-21T03:15:14;100511.44;;;16.16;50.14
63096;BME280;49184;55.596;37.770;2022-08-21T03:17:40;100453.44;;;15.81;50.64
63096;BME280;49184;55.596;37.770;2022-08-21T03:20:08;100531.75;;;16.29;51.00
63096;BME280;49184;55.596;37.770;2022-08-21T03:25:00;100475.69;;;16.02;51.01
63096;BME280;49184;55.596;37.770;2022-08-21T03:30:18;100494.44;;;16.23;50.56
63096;BME280;49184;55.596;37.770;2022-08-21T03:32:47;100466.31;;;16.03;50.77
63096;BME280;49184;55.596;37.770;2022-08-21T03:35:14;100530.66;;;16.47;50.73
63096;BME280;49184;55.596;37.770;2022-08-21T03:37:40;100472.97;;;16.11;50.42
63096;BME280;49184;55.596;37.770;2022-08-21T03:45:24;100485.34;;;16.31;50.10
63096;BME280;49184;55.596;37.770;2022-08-21T03:50:25;100484.06;;;16.37;50.25
63096;BME280;49184;55.596;37.770;2022-08-21T03:52:52;100462.75;;;16.29;50.50
63096;BME280;49184;55.596;37.770;2022-08-21T03:58:30;100540.94;;;16.81;50.54
63096;BME280;49184;55.596;37.770;2022-08-21T04:00:59;100494.13;;;16.59;50.31
63096;BME280;49184;55.596;37.770;2022-08-21T04:03:27;100492.34;;;16.63;50.30
63096;BME280;49184;55.596;37.770;2022-08-21T04:05:54;100504.41;;;16.76;50.35
63096;BME280;49184;55.596;37.770;2022-08-21T04:08:20;100472.22;;;16.62;49.90
63096;BME280;49184;55.596;37.770;2022-08-21T04:10:49;100462.78;;;16.55;50.15
63096;BME280;49184;55.596;37.770;2022-08-21T04:13:34;100527.44;;;17.06;50.32
63096;BME280;49184;55.596;37.770;2022-08-21T04:16:00;100493.81;;;16.86;49.95
63096;BME280;49184;55.596;37.770;2022-08-21T04:18:26;100500.47;;;16.94;49.94
63096;BME280;49184;55.596;37.770;2022-08-21T04:20:54;100468.66;;;16.79;49.85
63096;BME280;49184;55.596;37.770;2022-08-21T04:23:22;100500.97;;;16.96;49.81
63096;BME280;49184;55.596;37.770;2022-08-21T04:25:48;100514.91;;;17.08;50.01
63096;BME280;49184;55.596;37.770;2022-08-21T04:28:14;100543.50;;;17.30;49.64
63096;BME280;49184;55.596;37.770;2022-08-21T04:30:41;100532.94;;;17.32;49.92
63096;BME280;49184;55.596;37.770;2022-08-21T04:33:07;100484.22;;;17.01;49.40
63096;BME280;49184;55.596;37.770;2022-08-21T04:35:34;100524.97;;;17.30;49.74
63096;BME280;49184;55.596;37.770;2022-08-21T04:38:00;100506.13;;;17.15;49.12
63096;BME280;49184;55.596;37.770;2022-08-21T04:40:28;100495.72;;;17.21;48.72
63096;BME280;49184;55.596;37.770;2022-08-21T04:43:01;100492.13;;;17.29;49.03
63096;BME280;49184;55.596;37.770;2022-08-21T04:45:31;100473.31;;;17.13;49.14
63096;BME280;49184;55.596;37.770;2022-08-21T04:47:59;100515.00;;;17.38;48.21
63096;BME280;49184;55.596;37.770;2022-08-21T04:50:30;100468.72;;;17.18;48.81
63096;BME280;49184;55.596;37.770;2022-08-21T04:53:08;100494.84;;;17.37;48.74
63096;BME280;49184;55.596;37.770;2022-08-21T04:55:36;100501.66;;;17.49;48.25
63096;BME280;49184;55.596;37.770;2022-08-21T04:58:05;100468.38;;;17.36;48.04
63096;BME280;49184;55.596;37.770;2022-08-21T05:03:21;100494.31;;;17.61;48.17
63096;BME280;49184;55.596;37.770;2022-08-21T05:05:48;100545.41;;;18.02;47.38
63096;BME280;49184;55.596;37.770;2022-08-21T05:08:17;100512.09;;;17.90;46.79
63096;BME280;49184;55.596;37.770;2022-08-21T05:10:45;100498.78;;;17.83;47.17
63096;BME280;49184;55.596;37.770;2022-08-21T05:13:12;100547.75;;;18.21;46.81
63096;BME280;49184;55.596;37.770;2022-08-21T05:15:39;100484.72;;;17.97;47.43
63096;BME280;49184;55.596;37.770;2022-08-21T05:18:05;100504.13;;;18.18;46.56
63096;BME280;49184;55.596;37.770;2022-08-21T05:20:33;100461.44;;;17.98;46.43
63096;BME280;49184;55.596;37.770;2022-08-21T05:23:00;100505.84;;;18.31;46.84
63096;BME280;49184;55.596;37.770;2022-08-21T05:25:27;100476.59;;;18.22;46.33
63096;BME280;49184;55.596;37.770;2022-08-21T05:27:53;100525.50;;;18.60;46.62
63096;BME280;49184;55.596;37.770;2022-08-21T05:30:20;100506.34;;;18.54;46.12
63096;BME280;49184;55.596;37.770;2022-08-21T05:32:46;100520.69;;;18.77;46.16
63096;BME280;49184;55.596;37.770;2022-08-21T05:35:13;100494.16;;;18.68;45.44
63096;BME280;49184;55.596;37.770;2022-08-21T05:37:39;100481.31;;;18.63;45.33
63096;BME280;49184;55.596;37.770;2022-08-21T05:40:06;100450.81;;;18.51;45.16
63096;BME280;49184;55.596;37.770;2022-08-21T05:42:33;100460.81;;;18.64;45.32
63096;BME280;49184;55.596;37.770;2022-08-21T05:45:00;100458.16;;;18.68;44.13
63096;BME280;49184;55.596;37.770;2022-08-21T05:47:26;100474.91;;;18.92;44.77
63096;BME280;49184;55.596;37.770;2022-08-21T05:49:52;100502.91;;;19.12;45.05
63096;BME280;49184;55.596;37.770;2022-08-21T05:52:22;100530.81;;;19.40;44.89
63096;BME280;49184;55.596;37.770;2022-08-21T05:54:49;100520.56;;;19.40;44.42
63096;BME280;49184;55.596;37.770;2022-08-21T05:57:15;100517.56;;;19.45;43.36
63096;BME280;49184;55.596;37.770;2022-08-21T05:59:42;100502.75;;;19.41;42.82
63096;BME280;49184;55.596;37.770;2022-08-21T06:02:08;100502.44;;;19.55;42.63
63096;BME280;49184;55.596;37.770;2022-08-21T06:04:36;100487.75;;;19.55;42.40
63096;BME280;49184;55.596;37.770;2022-08-21T06:07:02;100510.47;;;19.81;42.20
63096;BME280;49184;55.596;37.770;2022-08-21T06:09:28;100477.97;;;19.69;41.49
63096;BME280;49184;55.596;37.770;2022-08-21T06:11:54;100482.72;;;19.81;41.88
63096;BME280;49184;55.596;37.770;2022-08-21T06:14:20;100490.34;;;19.97;41.82
63096;BME280;49184;55.596;37.770;2022-08-21T06:16:47;100490.47;;;20.00;41.47
63096;BME280;49184;55.596;37.770;2022-08-21T06:19:13;100457.63;;;19.90;41.36
63096;BME280;49184;55.596;37.770;2022-08-21T06:21:39;100458.31;;;19.99;41.45
63096;BME280;49184;55.596;37.770;2022-08-21T06:24:05;100513.56;;;20.41;41.26
63096;BME280;49184;55.596;37.770;2022-08-21T06:26:33;100510.88;;;20.45;39.99
63096;BME280;49184;55.596;37.770;2022-08-21T06:28:59;100513.91;;;20.52;39.25
63096;BME280;49184;55.596;37.770;2022-08-21T06:31:27;100461.63;;;20.29;39.79
63096;BME280;49184;55.596;37.770;2022-08-21T06:33:54;100450.97;;;20.31;40.23
63096;BME280;49184;55.596;37.770;2022-08-21T06:36:23;100510.34;;;20.79;39.42
63096;BME280;49184;55.596;37.770;2022-08-21T06:38:49;100505.00;;;20.86;39.33
63096;BME280;49184;55.596;37.770;2022-08-21T06:41:15;100484.00;;;20.73;39.45
63096;BME280;49184;55.596;37.770;2022-08-21T06:43:52;100426.38;;;20.46;39.19
63096;BME280;49184;55.596;37.770;2022-08-21T06:46:18;100476.38;;;20.86;38.61
63096;BME280;49184;55.596;37.770;2022-08-21T06:48:44;100463.66;;;20.85;38.99
63096;BME280;49184;55.596;37.770;2022-08-21T06:51:11;100464.94;;;20.87;38.92
63096;BME280;49184;55.596;37.770;2022-08-21T06:53:38;100456.78;;;20.95;38.52
63096;BME280;49184;55.596;37.770;2022-08-21T06:56:04;100496.22;;;21.28;38.81
63096;BME280;49184;55.596;37.770;2022-08-21T06:58:30;100507.88;;;21.46;39.84
63096;BME280;49184;55.596;37.770;2022-08-21T07:00:56;100467.59;;;21.28;38.73
63096;BME280;49184;55.596;37.770;2022-08-21T07:03:26;100475.91;;;21.40;37.99
63096;BME280;49184;55.596;37.770;2022-08-21T07:05:53;100466.38;;;21.41;37.66
63096;BME280;49184;55.596;37.770;2022-08-21T07:08:21;100477.25;;;21.62;38.60
63096;BME280;49184;55.596;37.770;2022-08-21T07:10:48;100494.03;;;21.81;36.13
63096;BME280;49184;55.596;37.770;2022-08-21T07:13:14;100466.41;;;21.73;35.67
63096;BME280;49184;55.596;37.770;2022-08-21T07:15:41;100487.50;;;21.90;36.07
63096;BME280;49184;55.596;37.770;2022-08-21T07:18:07;100483.25;;;21.96;35.06
63096;BME280;49184;55.596;37.770;2022-08-21T07:20:34;100473.47;;;22.02;36.06
63096;BME280;49184;55.596;37.770;2022-08-21T07:23:06;100483.66;;;22.14;34.97
63096;BME280;49184;55.596;37.770;2022-08-21T07:25:33;100479.47;;;22.20;34.83
63096;BME280;49184;55.596;37.770;2022-08-21T07:28:00;100455.19;;;22.04;34.93
63096;BME280;49184;55.596;37.770;2022-08-21T07:30:26;100477.63;;;22.27;34.38
63096;BME280;49184;55.596;37.770;2022-08-21T07:32:53;100468.78;;;22.22;34.95
63096;BME280;49184;55.596;37.770;2022-08-21T07:35:19;100481.41;;;22.35;34.28
63096;BME280;49184;55.596;37.770;2022-08-21T07:37:45;100462.56;;;22.28;34.51
63096;BME280;49184;55.596;37.770;2022-08-21T07:40:12;100481.72;;;22.49;34.70
63096;BME280;49184;55.596;37.770;2022-08-21T07:42:45;100487.06;;;22.58;33.99
63096;BME280;49184;55.596;37.770;2022-08-21T07:45:14;100469.25;;;22.63;33.51
63096;BME280;49184;55.596;37.770;2022-08-21T07:47:41;100469.78;;;22.68;33.78
63096;BME280;49184;55.596;37.770;2022-08-21T07:50:07;100468.72;;;22.77;34.00
63096;BME280;49184;55.596;37.770;2022-08-21T07:52:34;100469.66;;;22.84;33.84
63096;BME280;49184;55.596;37.770;2022-08-21T07:55:02;100432.13;;;22.78;33.67
63096;BME280;49184;55.596;37.770;2022-08-21T07:57:32;100448.34;;;22.92;33.04
63096;BME280;49184;55.596;37.770;2022-08-21T07:59:58;100457.72;;;23.03;32.90
63096;BME280;49184;55.596;37.770;2022-08-21T08:02:29;100461.09;;;23.12;32.87
63096;BME280;49184;55.596;37.770;2022-08-21T08:04:59;100435.13;;;23.08;33.84
63096;BME280;49184;55.596;37.770;2022-08-21T08:07:26;100435.25;;;23.15;33.43
63096;BME280;49184;55.596;37.770;2022-08-21T08:09:52;100435.72;;;23.21;32.17
63096;BME280;49184;55.596;37.770;2022-08-21T08:12:19;100414.53;;;23.16;32.00
63096;BME280;49184;55.596;37.770;2022-08-21T08:14:45;100443.81;;;23.49;31.57
63096;BME280;49184;55.596;37.770;2022-08-21T08:17:12;100447.03;;;23.51;30.87
63096;BME280;49184;55.596;37.770;2022-08-21T08:19:39;100401.16;;;23.26;30.61
63096;BME280;49184;55.596;37.770;2022-08-21T08:22:15;100410.31;;;23.49;30.76
63096;BME280;49184;55.596;37.770;2022-08-21T08:24:45;100407.22;;;23.54;31.09
63096;BME280;49184;55.596;37.770;2022-08-21T08:27:12;100416.13;;;23.63;30.13
63096;BME280;49184;55.596;37.770;2022-08-21T08:29:38;100405.84;;;23.67;30.75
63096;BME280;49184;55.596;37.770;2022-08-21T08:32:06;100401.94;;;23.72;31.29
63096;BME280;49184;55.596;37.770;2022-08-21T08:34:37;100425.28;;;23.87;30.69
63096;BME280;49184;55.596;37.770;2022-08-21T08:37:04;100429.69;;;23.88;29.70
63096;BME280;49184;55.596;37.770;2022-08-21T08:39:31;100409.22;;;23.80;30.00
63096;BME280;49184;55.596;37.770;2022-08-21T08:42:26;100423.06;;;24.00;29.79
63096;BME280;49184;55.596;37.770;2022-08-21T08:45:12;100409.16;;;24.03;30.77
63096;BME280;49184;55.596;37.770;2022-08-21T08:47:45;100427.34;;;24.20;31.29
63096;BME280;49184;55.596;37.770;2022-08-21T08:50:23;100415.13;;;24.32;30.33
63096;BME280;49184;55.596;37.770;2022-08-21T08:53:04;100411.34;;;24.44;29.25
63096;BME280;49184;55.596;37.770;2022-08-21T08:55:37;100409.84;;;24.53;30.62
63096;BME280;49184;55.596;37.770;2022-08-21T08:58:03;100426.84;;;24.71;29.28
63096;BME280;49184;55.596;37.770;2022-08-21T09:00:31;100391.06;;;24.50;29.25
63096;BME280;49184;55.596;37.770;2022-08-21T09:03:02;100398.31;;;24.58;27.89
63096;BME280;49184;55.596;37.770;2022-08-21T09:06:06;100395.78;;;24.46;28.20
63096;BME280;49184;55.596;37.770;2022-08-21T09:09:11;100345.94;;;24.22;27.25
63096;BME280;49184;55.596;37.770;2022-08-21T09:12:01;100428.06;;;24.74;27.23
63096;BME280;49184;55.596;37.770;2022-08-21T09:17:33;100433.41;;;24.90;27.12
63096;BME280;49184;55.596;37.770;2022-08-21T09:23:25;100419.72;;;25.15;26.45
63096;BME280;49184;55.596;37.770;2022-08-21T09:26:04;100421.09;;;25.35;28.05
63096;BME280;49184;55.596;37.770;2022-08-21T09:28:35;100348.97;;;25.14;26.66
63096;BME280;49184;55.596;37.770;2022-08-21T09:31:40;100416.25;;;25.76;27.09
63096;BME280;49184;55.596;37.770;2022-08-21T09:34:10;100357.19;;;25.44;26.23
63096;BME280;49184;55.596;37.770;2022-08-21T09:36:47;100382.19;;;25.71;26.34
63096;BME280;49184;55.596;37.770;2022-08-21T09:39:24;100375.00;;;25.70;25.14
63096;BME280;49184;55.596;37.770;2022-08-21T09:42:00;100396.25;;;25.78;26.28
63096;BME280;49184;55.596;37.770;2022-08-21T09:44:30;100396.16;;;25.64;25.48
63096;BME280;49184;55.596;37.770;2022-08-21T09:46:58;100401.72;;;25.60;26.10
63096;BME280;49184;55.596;37.770;2022-08-21T09:49:31;100355.13;;;25.34;26.76
63096;BME280;49184;55.596;37.770;2022-08-21T09:51:59;100389.31;;;25.61;27.48
63096;BME280;49184;55.596;37.770;2022-08-21T09:54:53;100346.38;;;25.43;26.03
63096;BME280;49184;55.596;37.770;2022-08-21T09:57:31;100415.94;;;25.89;25.75
63096;BME280;49184;55.596;37.770;2022-08-21T10:02:42;100379.69;;;25.59;27.76
63096;BME280;49184;55.596;37.770;2022-08-21T10:05:18;100420.69;;;25.81;27.20
63096;BME280;49184;55.596;37.770;2022-08-21T10:07:45;100377.25;;;25.50;25.84
63096;BME280;49184;55.596;37.770;2022-08-21T10:10:21;100355.19;;;25.41;26.60
63096;BME280;49184;55.596;37.770;2022-08-21T10:12:59;100342.38;;;25.40;26.47
63096;BME280;49184;55.596;37.770;2022-08-21T10:16:13;100417.13;;;25.84;26.78
63096;BME280;49184;55.596;37.770;2022-08-21T10:18:27;100413.91;;;25.82;26.85
63096;BME280;49184;55.596;37.770;2022-08-21T10:21:02;100418.66;;;25.78;25.58
63096;BME280;49184;55.596;37.770;2022-08-21T10:32:24;100398.72;;;25.87;27.24
63096;BME280;49184;55.596;37.770;2022-08-21T10:38:43;100362.59;;;25.71;26.56
63096;BME280;49184;55.596;37.770;2022-08-21T10:43:38;100335.19;;;25.43;27.05
63096;BME280;49184;55.596;37.770;2022-08-21T10:46:18;100354.50;;;25.59;26.26
63096;BME280;49184;55.596;37.770;2022-08-21T10:48:53;100358.53;;;25.65;26.62
63096;BME280;49184;55.596;37.770;2022-08-21T10:51:23;100379.50;;;25.85;27.45
63096;BME280;49184;55.596;37.770;2022-08-21T10:54:27;100369.50;;;25.88;25.49
63096;BME280;49184;55.596;37.770;2022-08-21T10:57:03;100319.31;;;25.61;26.97
63096;BME280;49184;55.596;37.770;2022-08-21T10:59:36;100336.97;;;25.72;26.85
63096;BME280;49184;55.596;37.770;2022-08-21T11:02:17;100365.53;;;25.92;26.00
63096;BME280;49184;55.596;37.770;2022-08-21T11:05:00;100326.63;;;25.76;26.39
63096;BME280;49184;55.596;37.770;2022-08-21T11:10:48;100306.94;;;25.69;27.13
63096;BME280;49184;55.596;37.770;2022-08-21T11:13:38;100360.78;;;25.96;26.54
63096;BME280;49184;55.596;37.770;2022-08-21T11:17:00;100328.59;;;25.76;27.13
63096;BME280;49184;55.596;37.770;2022-08-21T11:19:07;100363.97;;;25.98;27.41
63096;BME280;49184;55.596;37.770;2022-08-21T11:21:42;100338.72;;;25.91;27.93
63096;BME280;49184;55.596;37.770;2022-08-21T11:28:21;100336.31;;;25.90;29.82
63096;BME280;49184;55.596;37.770;2022-08-21T11:33:49;100372.81;;;26.04;28.17
63096;BME280;49184;55.596;37.770;2022-08-21T11:36:28;100369.56;;;25.98;28.13
63096;BME280;49184;55.596;37.770;2022-08-21T11:41:43;100369.56;;;25.98;30.37
63096;BME280;49184;55.596;37.770;2022-08-21T11:44:29;100341.06;;;25.82;30.11
63096;BME280;49184;55.596;37.770;2022-08-21T11:49:49;100361.88;;;25.81;28.16
63096;BME280;49184;55.596;37.770;2022-08-21T11:52:24;100340.97;;;25.68;27.52
63096;BME280;49184;55.596;37.770;2022-08-21T11:54:56;100361.00;;;25.70;27.23
63096;BME280;49184;55.596;37.770;2022-08-21T11:57:38;100336.44;;;25.52;25.76
63096;BME280;49184;55.596;37.770;2022-08-21T12:02:47;100321.94;;;25.36;26.33
63096;BME280;49184;55.596;37.770;2022-08-21T12:05:41;100301.53;;;25.32;27.34
63096;BME280;49184;55.596;37.770;2022-08-21T12:08:38;100345.25;;;25.51;26.51
63096;BME280;49184;55.596;37.770;2022-08-21T12:13:35;100326.78;;;25.43;25.90
63096;BME280;49184;55.596;37.770;2022-08-21T12:16:13;100329.25;;;25.51;25.60
63096;BME280;49184;55.596;37.770;2022-08-21T12:18:41;100303.56;;;25.39;25.83
63096;BME280;49184;55.596;37.770;2022-08-21T12:21:26;100343.31;;;25.62;26.32
63096;BME280;49184;55.596;37.770;2022-08-21T12:26:55;100335.41;;;25.75;27.10
63096;BME280;49184;55.596;37.770;2022-08-21T12:29:26;100352.78;;;26.02;26.05
63096;BME280;49184;55.596;37.770;2022-08-21T12:31:59;100346.81;;;26.07;27.03
63096;BME280;49184;55.596;37.770;2022-08-21T12:34:34;100322.72;;;25.95;26.50
63096;BME280;49184;55.596;37.770;2022-08-21T12:39:38;100327.53;;;25.98;28.22
63096;BME280;49184;55.596;37.770;2022-08-21T12:44:54;100323.97;;;26.05;30.09
63096;BME280;49184;55.596;37.770;2022-08-21T12:53:10;100331.19;;;26.06;27.74
63096;BME280;49184;55.596;37.770;2022-08-21T12:55:42;100313.91;;;25.93;27.27
63096;BME280;49184;55.596;37.770;2022-08-21T12:58:24;100322.25;;;25.83;26.19
63096;BME280;49184;55.596;37.770;2022-08-21T13:00:54;100331.91;;;25.96;26.01
63096;BME280;49184;55.596;37.770;2022-08-21T13:03:22;100318.66;;;25.86;24.96
63096;BME280;49184;55.596;37.770;2022-08-21T13:05:50;100284.59;;;25.73;25.83
63096;BME280;49184;55.596;37.770;2022-08-21T13:08:19;100280.66;;;25.81;24.93
63096;BME280;49184;55.596;37.770;2022-08-21T13:10:47;100303.13;;;26.02;24.80
63096;BME280;49184;55.596;37.770;2022-08-21T13:13:21;100336.84;;;26.20;25.26
63096;BME280;49184;55.596;37.770;2022-08-21T13:15:48;100273.06;;;25.92;25.08
63096;BME280;49184;55.596;37.770;2022-08-21T13:18:22;100283.13;;;26.04;26.70
63096;BME280;49184;55.596;37.770;2022-08-21T13:21:05;100324.50;;;26.39;25.21
63096;BME280;49184;55.596;37.770;2022-08-21T13:23:34;100291.22;;;26.23;25.45
63096;BME280;49184;55.596;37.770;2022-08-21T13:26:14;100314.50;;;26.45;25.50
63096;BME280;49184;55.596;37.770;2022-08-21T13:28:41;100285.97;;;26.15;25.90
63096;BME280;49184;55.596;37.770;2022-08-21T13:31:18;100301.22;;;26.24;26.41
63096;BME280;49184;55.596;37.770;2022-08-21T13:33:48;100287.97;;;26.14;25.10
63096;BME280;49184;55.596;37.770;2022-08-21T13:36:29;100279.13;;;26.01;25.59
63096;BME280;49184;55.596;37.770;2022-08-21T13:38:57;100285.13;;;26.00;26.21
63096;BME280;49184;55.596;37.770;2022-08-21T13:41:29;100279.44;;;25.82;25.61
63096;BME280;49184;55.596;37.770;2022-08-21T13:44:02;100258.53;;;25.65;26.10
63096;BME280;49184;55.596;37.770;2022-08-21T13:46:32;100296.66;;;25.84;27.90
63096;BME280;49184;55.596;37.770;2022-08-21T13:49:02;100294.59;;;25.77;26.91
63096;BME280;49184;55.596;37.770;2022-08-21T13:51:30;100294.59;;;25.77;27.10
63096;BME280;49184;55.596;37.770;2022-08-21T13:53:58;100277.72;;;25.60;25.65
63096;BME280;49184;55.596;37.770;2022-08-21T13:56:30;100244.44;;;25.44;26.15
63096;BME280;49184;55.596;37.770;2022-08-21T13:59:00;100258.06;;;25.52;26.49
63096;BME280;49184;55.596;37.770;2022-08-21T14:04:29;100276.50;;;25.61;26.53
63096;BME280;49184;55.596;37.770;2022-08-21T14:06:58;100271.66;;;25.50;27.49
63096;BME280;49184;55.596;37.770;2022-08-21T14:09:32;100248.00;;;25.41;26.87
63096;BME280;49184;55.596;37.770;2022-08-21T14:12:13;100230.31;;;25.29;26.92
63096;BME280;49184;55.596;37.770;2022-08-21T14:14:40;100262.06;;;25.55;28.90
63096;BME280;49184;55.596;37.770;2022-08-21T14:17:10;100246.44;;;25.43;27.37
63096;BME280;49184;55.596;37.770;2022-08-21T14:19:43;100238.41;;;25.45;26.98
63096;BME280;49184;55.596;37.770;2022-08-21T14:27:57;100305.09;;;25.88;27.04
63096;BME280;49184;55.596;37.770;2022-08-21T14:30:34;100305.88;;;25.88;26.55
63096;BME280;49184;55.596;37.770;2022-08-21T14:33:02;100299.03;;;25.82;26.98